Time;durP1;ratioP1;P1;durP2;ratioP2;P2;SDS_P1;SDS_P2;PMS_P1;PMS_P2;Temp;Humidity;BMP_temperature;BMP_pressure;BME280_temperature;BME280_humidity;BME280_pressure;Samples;Min_cycle;Max_cycle;Signal;HPM_P1;HPM_P2
2021/10/14 00:01:35;;;;;;;;;;;;;;;15.31;72.83;101293.09;1988018;72;20140;-64
2021/10/14 00:04:03;;;;;;;;;;;;;;;15.30;72.84;101295.34;1988387;72;20209;-64
2021/10/14 00:06:31;;;;;;;;;;;;;;;15.30;72.73;101297.99;1988208;72;20191;-65
2021/10/14 00:08:59;;;;;;;;;;;;;;;15.31;72.75;101299.73;1988155;72;20145;-65
2021/10/14 00:11:28;;;;;;;;;;;;;;;15.30;72.76;101303.77;1988142;72;20098;-64
2021/10/14 00:13:55;;;;;;;;;;;;;;;15.28;72.81;101309.16;1988206;72;20121;-65
2021/10/14 00:16:23;;;;;;;;;;;;;;;15.27;72.84;101306.12;1988077;72;20097;-64
2021/10/14 00:18:51;;;;;;;;;;;;;;;15.27;72.84;101315.41;1988205;72;20114;-65
2021/10/14 00:21:19;;;;;;;;;;;;;;;15.23;72.95;101317.80;1988129;72;20140;-64
2021/10/14 00:23:46;;;;;;;;;;;;;;;15.19;73.05;101320.22;1988172;72;20114;-63
2021/10/14 00:26:14;;;;;;;;;;;;;;;15.16;73.17;101326.98;1988125;72;20098;-64
2021/10/14 00:28:42;;;;;;;;;;;;;;;15.15;73.04;101319.51;1987996;72;20161;-64
2021/10/14 00:31:10;;;;;;;;;;;;;;;15.13;73.09;101331.14;1988163;72;20114;-64
2021/10/14 00:33:37;;;;;;;;;;;;;;;15.11;73.27;101325.91;1988174;72;20380;-64
2021/10/14 00:36:05;;;;;;;;;;;;;;;15.10;73.21;101329.95;1988149;72;20122;-64
2021/10/14 00:38:33;;;;;;;;;;;;;;;15.08;73.14;101334.47;1988232;72;20144;-63
2021/10/14 00:41:01;;;;;;;;;;;;;;;15.04;73.18;101339.06;1988115;72;20145;-64
2021/10/14 00:43:29;;;;;;;;;;;;;;;15.00;73.06;101344.98;1988083;72;20110;-64
2021/10/14 00:45:56;;;;;;;;;;;;;;;14.99;73.04;101344.58;1988136;72;20094;-64
2021/10/14 00:48:24;;;;;;;;;;;;;;;14.99;72.98;101347.22;1988110;72;20137;-65
2021/10/14 00:50:52;;;;;;;;;;;;;;;14.98;72.97;101352.16;1988178;72;20173;-64
2021/10/14 00:53:20;;;;;;;;;;;;;;;14.95;73.00;101351.44;1988249;72;20149;-64
2021/10/14 00:55:48;;;;;;;;;;;;;;;14.90;73.02;101342.36;1988076;72;20144;-64
2021/10/14 00:58:16;;;;;;;;;;;;;;;14.89;72.99;101353.06;1988150;72;20181;-63
2021/10/14 01:00:44;;;;;;;;;;;;;;;14.84;73.07;101355.92;1988119;72;20102;-64
2021/10/14 01:03:12;;;;;;;;;;;;;;;14.81;73.19;101361.36;1988154;72;20149;-64
2021/10/14 01:05:40;;;;;;;;;;;;;;;14.78;73.21;101369.00;1987934;72;20144;-64
2021/10/14 01:08:07;;;;;;;;;;;;;;;14.79;73.02;101372.50;1988130;72;20127;-64
2021/10/14 01:10:35;;;;;;;;;;;;;;;14.82;72.99;101376.34;1988148;72;20137;-64
2021/10/14 01:13:03;;;;;;;;;;;;;;;14.83;72.87;101376.28;1988142;72;20114;-64
2021/10/14 01:15:31;;;;;;;;;;;;;;;14.87;72.58;101387.60;1988131;72;20102;-65
2021/10/14 01:17:59;;;;;;;;;;;;;;;14.88;72.54;101394.61;1988087;72;20140;-66
2021/10/14 01:20:27;;;;;;;;;;;;;;;14.87;72.40;101394.23;1988127;72;20110;-63
2021/10/14 01:22:55;;;;;;;;;;;;;;;14.88;72.12;101403.89;1988055;72;20106;-63
2021/10/14 01:25:24;;;;;;;;;;;;;;;14.90;72.08;101395.39;1988169;72;20149;-64
2021/10/14 01:27:52;;;;;;;;;;;;;;;14.87;71.90;101390.25;1988139;72;20438;-63
2021/10/14 01:30:20;;;;;;;;;;;;;;;14.84;71.63;101400.52;1962799;72;20100;-64
2021/10/14 01:32:49;;;;;;;;;;;;;;;14.82;71.66;101408.16;1959480;73;20230;-64
2021/10/14 01:35:18;;;;;;;;;;;;;;;14.80;71.66;101414.00;1959634;73;20112;-63
2021/10/14 01:37:46;;;;;;;;;;;;;;;14.72;71.69;101408.17;1959460;73;20393;-64
2021/10/14 01:40:14;;;;;;;;;;;;;;;14.64;71.74;101408.09;1959488;73;20119;-63
2021/10/14 01:42:42;;;;;;;;;;;;;;;14.60;71.77;101418.88;1959437;73;20159;-64
2021/10/14 01:45:10;;;;;;;;;;;;;;;14.53;71.85;101420.90;1959392;73;20142;-64
2021/10/14 01:47:38;;;;;;;;;;;;;;;14.50;71.50;101415.76;1959449;73;20103;-64
2021/10/14 01:50:07;;;;;;;;;;;;;;;14.51;71.34;101428.53;1959460;73;20108;-63
2021/10/14 01:52:35;;;;;;;;;;;;;;;14.47;71.23;101433.95;1959470;73;20104;-64
2021/10/14 01:55:03;;;;;;;;;;;;;;;14.43;71.22;101437.68;1959434;73;20193;-63
2021/10/14 01:57:30;;;;;;;;;;;;;;;14.41;71.24;101447.96;1959349;73;20104;-65
2021/10/14 01:59:58;;;;;;;;;;;;;;;14.36;71.27;101438.02;1959545;73;20116;-64
2021/10/14 02:02:26;;;;;;;;;;;;;;;14.33;71.29;101447.41;1959415;73;20142;-65
2021/10/14 02:04:54;;;;;;;;;;;;;;;14.31;71.41;101451.92;1959558;73;20112;-64
2021/10/14 02:07:21;;;;;;;;;;;;;;;14.26;71.56;101438.90;1959444;73;20146;-65
2021/10/14 02:09:49;;;;;;;;;;;;;;;14.22;71.58;101456.70;1959472;73;20112;-64
2021/10/14 02:12:17;;;;;;;;;;;;;;;14.20;71.66;101466.51;1959354;73;20105;-64
2021/10/14 02:14:45;;;;;;;;;;;;;;;14.17;71.82;101456.03;1959421;73;20138;-64
2021/10/14 02:17:12;;;;;;;;;;;;;;;14.14;71.97;101466.75;1959448;73;20148;-65
2021/10/14 02:19:40;;;;;;;;;;;;;;;14.10;72.19;101473.11;1959476;72;20108;-64
2021/10/14 02:22:08;;;;;;;;;;;;;;;14.06;72.38;101464.43;1959435;73;20112;-64
2021/10/14 02:24:36;;;;;;;;;;;;;;;14.04;72.58;101478.67;1959304;72;20142;-64
2021/10/14 02:27:04;;;;;;;;;;;;;;;14.02;72.85;101491.12;1959447;73;20163;-64
2021/10/14 02:29:31;;;;;;;;;;;;;;;13.99;72.97;101492.09;1970809;72;20106;-64
2021/10/14 02:31:59;;;;;;;;;;;;;;;14.00;72.86;101500.88;1994728;72;20118;-64
2021/10/14 02:34:27;;;;;;;;;;;;;;;14.00;73.13;101511.47;1994587;72;20140;-64
2021/10/14 02:36:55;;;;;;;;;;;;;;;13.99;73.16;101513.73;1994625;72;20102;-64
2021/10/14 02:39:23;;;;;;;;;;;;;;;13.97;73.11;101519.09;1994527;72;20187;-64
2021/10/14 02:41:50;;;;;;;;;;;;;;;13.96;73.08;101520.47;1994594;72;20114;-65
2021/10/14 02:44:18;;;;;;;;;;;;;;;13.88;72.96;101534.87;1994603;72;20105;-65
2021/10/14 02:46:46;;;;;;;;;;;;;;;13.83;72.91;101539.52;1994603;72;20113;-64
2021/10/14 02:49:14;;;;;;;;;;;;;;;13.81;72.96;101546.63;1994572;72;20110;-64
2021/10/14 02:51:42;;;;;;;;;;;;;;;13.81;73.01;101549.75;1994670;72;20161;-65
2021/10/14 02:54:10;;;;;;;;;;;;;;;13.81;73.05;101550.60;1994594;72;20243;-64
2021/10/14 02:56:38;;;;;;;;;;;;;;;13.86;73.04;101557.05;1994578;72;20114;-65
2021/10/14 02:59:05;;;;;;;;;;;;;;;13.94;73.28;101555.42;1994606;72;20110;-64
2021/10/14 03:01:33;;;;;;;;;;;;;;;13.98;73.09;101563.19;1994505;71;20157;-64
2021/10/14 03:04:01;;;;;;;;;;;;;;;14.04;73.05;101565.58;1994604;72;20118;-64
2021/10/14 03:06:29;;;;;;;;;;;;;;;14.09;73.00;101561.41;1994526;72;20098;-64
2021/10/14 03:08:56;;;;;;;;;;;;;;;14.12;72.94;101558.64;1994611;72;20147;-62
2021/10/14 03:11:24;;;;;;;;;;;;;;;14.17;73.08;101564.63;1994629;72;20110;-63
2021/10/14 03:13:52;;;;;;;;;;;;;;;14.20;72.97;101564.52;1994599;72;20144;-62
2021/10/14 03:16:20;;;;;;;;;;;;;;;14.23;72.90;101568.34;1994579;72;20097;-63
2021/10/14 03:18:52;;;;;;;;;;;;;;;14.25;72.84;101570.92;1994524;72;20113;-64
2021/10/14 03:21:17;;;;;;;;;;;;;;;14.28;72.82;101578.28;1993249;72;20231;-62
2021/10/14 03:23:45;;;;;;;;;;;;;;;14.32;73.03;101575.52;1994507;72;20101;-63
2021/10/14 03:26:13;;;;;;;;;;;;;;;14.33;73.76;101575.90;1994567;72;20188;-62
2021/10/14 03:28:41;;;;;;;;;;;;;;;14.34;73.57;101577.64;1994554;72;20114;-62
2021/10/14 03:31:09;;;;;;;;;;;;;;;14.36;73.33;101588.56;1994483;72;20117;-62
2021/10/14 03:33:37;;;;;;;;;;;;;;;14.37;73.22;101583.67;1994500;72;20118;-61
2021/10/14 03:36:05;;;;;;;;;;;;;;;14.35;73.22;101591.27;1994722;72;20140;-61
2021/10/14 03:38:33;;;;;;;;;;;;;;;14.34;73.28;101595.72;1994689;72;20148;-61
2021/10/14 03:41:01;;;;;;;;;;;;;;;14.34;73.21;101598.84;1994623;71;20114;-62
2021/10/14 03:43:28;;;;;;;;;;;;;;;14.29;73.26;101598.56;1994648;72;20114;-62
2021/10/14 03:45:56;;;;;;;;;;;;;;;14.29;73.33;101603.87;1994636;72;20140;-62
2021/10/14 03:48:24;;;;;;;;;;;;;;;14.28;73.36;101606.57;1994677;72;20111;-62
2021/10/14 03:50:52;;;;;;;;;;;;;;;14.27;73.41;101609.69;1994647;72;20110;-62
2021/10/14 03:53:19;;;;;;;;;;;;;;;14.29;73.43;101609.16;1994764;72;20384;-63
2021/10/14 03:55:47;;;;;;;;;;;;;;;14.32;73.52;101613.94;1994688;72;20114;-63
2021/10/14 03:58:15;;;;;;;;;;;;;;;14.35;73.50;101616.44;1994691;72;20102;-65
2021/10/14 04:00:43;;;;;;;;;;;;;;;14.37;73.50;101614.14;1994555;72;20114;-63
2021/10/14 04:03:11;;;;;;;;;;;;;;;14.39;73.86;101619.38;1994694;72;20133;-63
2021/10/14 04:05:38;;;;;;;;;;;;;;;14.37;74.10;101623.89;1994679;72;20098;-63
2021/10/14 04:08:06;;;;;;;;;;;;;;;14.38;73.94;101625.59;1994678;72;20140;-63
2021/10/14 04:10:34;;;;;;;;;;;;;;;14.38;74.03;101632.22;1994709;72;20161;-63
2021/10/14 04:13:01;;;;;;;;;;;;;;;14.39;73.98;101641.91;1994593;72;20110;-64
2021/10/14 04:15:29;;;;;;;;;;;;;;;14.40;73.87;101646.27;1994670;72;20110;-65
2021/10/14 04:17:57;;;;;;;;;;;;;;;14.41;73.78;101645.35;1994778;72;20110;-64
2021/10/14 04:20:25;;;;;;;;;;;;;;;14.38;74.30;101648.97;1994665;72;20101;-66
2021/10/14 04:22:54;;;;;;;;;;;;;;;14.32;74.56;101656.32;1994697;72;20137;-64
2021/10/14 04:25:22;;;;;;;;;;;;;;;14.28;75.02;101655.11;1994680;72;20126;-64
2021/10/14 04:27:49;;;;;;;;;;;;;;;14.29;75.04;101659.50;1994523;72;20144;-65
2021/10/14 04:30:17;;;;;;;;;;;;;;;14.29;75.07;101658.61;1993591;72;20118;-65
2021/10/14 04:32:45;;;;;;;;;;;;;;;14.25;75.41;101665.81;1988159;72;20106;-64
2021/10/14 04:35:13;;;;;;;;;;;;;;;14.25;75.36;101674.23;1988270;72;20114;-64
2021/10/14 04:37:41;;;;;;;;;;;;;;;14.22;75.37;101672.58;1988125;72;20140;-64
2021/10/14 04:40:10;;;;;;;;;;;;;;;14.20;75.68;101675.75;1988048;72;20114;-64
2021/10/14 04:42:38;;;;;;;;;;;;;;;14.19;75.54;101679.31;1988119;72;20114;-64
2021/10/14 04:45:06;;;;;;;;;;;;;;;14.24;75.27;101686.63;1988285;72;20140;-64
2021/10/14 04:47:36;;;;;;;;;;;;;;;14.26;75.14;101690.07;1988077;72;20176;-64
2021/10/14 04:50:04;;;;;;;;;;;;;;;14.32;74.94;101696.06;1988149;72;20498;-64
2021/10/14 04:52:32;;;;;;;;;;;;;;;14.34;74.83;101704.80;1988160;72;20110;-64
2021/10/14 04:55:00;;;;;;;;;;;;;;;14.34;74.80;101708.78;1988144;72;20180;-64
2021/10/14 04:57:28;;;;;;;;;;;;;;;14.37;74.65;101711.31;1988114;72;20121;-64
2021/10/14 04:59:56;;;;;;;;;;;;;;;14.39;74.56;101712.12;1988150;72;20102;-64
2021/10/14 05:02:24;;;;;;;;;;;;;;;14.42;74.47;101719.48;1988129;72;20161;-64
2021/10/14 05:04:52;;;;;;;;;;;;;;;14.42;74.38;101726.55;1988115;72;20106;-64
2021/10/14 05:07:20;;;;;;;;;;;;;;;14.42;74.36;101728.76;1988055;72;20110;-64
2021/10/14 05:09:47;;;;;;;;;;;;;;;14.44;74.27;101731.32;1988137;72;20105;-64
2021/10/14 05:12:15;;;;;;;;;;;;;;;14.45;74.23;101743.66;1988175;72;20140;-64
2021/10/14 05:14:43;;;;;;;;;;;;;;;14.47;74.19;101745.78;1988368;72;20165;-64
2021/10/14 05:17:11;;;;;;;;;;;;;;;14.48;74.24;101748.85;1988174;72;20141;-64
2021/10/14 05:19:39;;;;;;;;;;;;;;;14.51;74.14;101750.50;1988147;72;20114;-64
2021/10/14 05:22:07;;;;;;;;;;;;;;;14.52;74.16;101753.57;1988081;72;20224;-64
2021/10/14 05:24:34;;;;;;;;;;;;;;;14.55;74.04;101760.05;1988110;72;20192;-64
2021/10/14 05:27:02;;;;;;;;;;;;;;;14.57;73.96;101760.45;1988136;72;20110;-65
2021/10/14 05:29:30;;;;;;;;;;;;;;;14.59;74.00;101766.55;1988120;72;20114;-64
2021/10/14 05:31:58;;;;;;;;;;;;;;;14.63;73.91;101777.89;1992137;72;20114;-64
2021/10/14 05:34:26;;;;;;;;;;;;;;;14.68;73.92;101781.20;1994513;72;20141;-65
2021/10/14 05:36:54;;;;;;;;;;;;;;;14.78;73.96;101784.38;1994648;72;20098;-64
2021/10/14 05:39:21;;;;;;;;;;;;;;;14.92;73.83;101786.02;1994661;72;20114;-63
2021/10/14 05:41:49;;;;;;;;;;;;;;;15.08;73.70;101784.90;1994660;72;20110;-64
2021/10/14 05:44:17;;;;;;;;;;;;;;;15.47;73.60;101793.44;1994619;72;20114;-64
2021/10/14 05:46:45;;;;;;;;;;;;;;;15.65;73.31;101802.41;1994640;72;20113;-64
2021/10/14 05:49:13;;;;;;;;;;;;;;;15.67;73.28;101801.87;1994569;72;20180;-64
2021/10/14 05:51:41;;;;;;;;;;;;;;;15.67;73.30;101803.67;1994763;72;20137;-64
2021/10/14 05:54:08;;;;;;;;;;;;;;;15.67;73.25;101812.48;1994638;72;20114;-63
2021/10/14 05:56:37;;;;;;;;;;;;;;;15.71;73.11;101815.41;1994845;72;20110;-64
2021/10/14 05:59:04;;;;;;;;;;;;;;;15.68;73.02;101826.17;1994571;72;20187;-64
2021/10/14 06:01:32;;;;;;;;;;;;;;;15.63;72.92;101828.16;1994545;72;20157;-64
2021/10/14 06:04:00;;;;;;;;;;;;;;;15.62;72.89;101831.28;1994584;72;20599;-64
2021/10/14 06:06:28;;;;;;;;;;;;;;;15.62;72.83;101836.59;1994615;72;20098;-64
2021/10/14 06:08:56;;;;;;;;;;;;;;;15.60;72.79;101833.59;1994638;72;20144;-64
2021/10/14 06:11:23;;;;;;;;;;;;;;;15.59;72.80;101842.03;1994666;72;20144;-64
2021/10/14 06:13:51;;;;;;;;;;;;;;;15.57;72.80;101839.05;1994777;72;20137;-63
2021/10/14 06:16:19;;;;;;;;;;;;;;;15.66;72.81;101841.31;1994821;72;20114;-64
2021/10/14 06:18:47;;;;;;;;;;;;;;;15.79;72.76;101851.83;1994629;72;20204;-63
2021/10/14 06:21:15;;;;;;;;;;;;;;;15.97;72.64;101859.91;1994674;72;20165;-64
2021/10/14 06:23:43;;;;;;;;;;;;;;;15.99;72.39;101864.69;1994604;72;20110;-64
2021/10/14 06:26:11;;;;;;;;;;;;;;;15.95;72.30;101867.97;1994611;72;20168;-63
2021/10/14 06:28:39;;;;;;;;;;;;;;;15.93;72.27;101867.63;1994540;72;20110;-63
2021/10/14 06:31:15;;;;;;;;;;;;;;;15.94;72.19;101876.00;1961877;73;20092;-62
2021/10/14 06:33:43;;;;;;;;;;;;;;;15.88;72.21;101880.23;1921083;75;20112;-62
2021/10/14 06:36:11;;;;;;;;;;;;;;;15.83;72.03;101881.30;1921120;75;20145;-62
2021/10/14 06:38:39;;;;;;;;;;;;;;;15.77;72.31;101886.89;1921090;75;20117;-62
2021/10/14 06:41:07;;;;;;;;;;;;;;;15.73;72.40;101887.92;1921022;75;20156;-63
2021/10/14 06:43:35;;;;;;;;;;;;;;;15.67;72.00;101889.48;1921107;75;20139;-62
2021/10/14 06:46:02;;;;;;;;;;;;;;;15.64;72.03;101893.62;1921095;73;20150;-62
2021/10/14 06:48:30;;;;;;;;;;;;;;;15.64;72.00;101902.91;1921087;75;20143;-62
2021/10/14 06:50:58;;;;;;;;;;;;;;;15.68;71.92;101891.23;1921053;75;20151;-62
2021/10/14 06:53:27;;;;;;;;;;;;;;;15.77;71.60;101894.85;1921085;75;20164;-62
2021/10/14 06:55:54;;;;;;;;;;;;;;;15.91;71.58;101898.23;1921036;75;20105;-62
2021/10/14 06:58:22;;;;;;;;;;;;;;;16.04;71.32;101901.22;1921078;75;20112;-62
2021/10/14 07:00:50;;;;;;;;;;;;;;;16.17;71.12;101906.39;1921077;75;20112;-62
2021/10/14 07:03:18;;;;;;;;;;;;;;;16.26;70.22;101906.45;1921108;75;20109;-62
2021/10/14 07:05:46;;;;;;;;;;;;;;;16.33;70.51;101911.05;1921071;75;20121;-62
2021/10/14 07:08:14;;;;;;;;;;;;;;;16.52;70.51;101913.73;1921030;75;20112;-63
2021/10/14 07:10:45;;;;;;;;;;;;;;;16.65;70.28;101916.70;1921046;75;20223;-62
2021/10/14 07:13:11;;;;;;;;;;;;;;;17.07;69.69;101917.84;1920920;74;20401;-62
2021/10/14 07:15:39;;;;;;;;;;;;;;;17.69;68.38;101913.53;1921076;75;20117;-62
2021/10/14 07:18:08;;;;;;;;;;;;;;;18.01;67.58;101911.90;1921054;75;20426;-62
2021/10/14 07:20:36;;;;;;;;;;;;;;;18.07;68.15;101916.05;1921051;75;20124;-62
2021/10/14 07:23:09;;;;;;;;;;;;;;;17.98;68.03;101920.04;1921017;75;20324;-62
2021/10/14 07:25:38;;;;;;;;;;;;;;;17.81;68.26;101923.54;1921040;75;20155;-62
2021/10/14 07:28:06;;;;;;;;;;;;;;;17.80;68.41;101927.16;1921068;75;20113;-62
2021/10/14 07:30:35;;;;;;;;;;;;;;;17.87;68.26;101927.73;1915362;75;20148;-62
2021/10/14 07:33:06;;;;;;;;;;;;;;;17.87;67.74;101930.39;1908722;75;20148;-62
2021/10/14 07:35:34;;;;;;;;;;;;;;;17.90;67.38;101928.91;1908785;74;20402;-62
2021/10/14 07:38:03;;;;;;;;;;;;;;;18.19;66.39;101930.56;1908823;75;20102;-62
2021/10/14 07:40:33;;;;;;;;;;;;;;;19.49;64.84;101933.22;1908591;75;20105;-62
2021/10/14 07:43:02;;;;;;;;;;;;;;;21.36;60.51;101918.18;1908007;75;20117;-62
2021/10/14 07:45:30;;;;;;;;;;;;;;;22.94;59.11;101924.33;1908068;75;20117;-62
2021/10/14 07:47:58;;;;;;;;;;;;;;;24.14;57.00;101915.86;1907969;75;20202;-62
2021/10/14 07:50:26;;;;;;;;;;;;;;;25.02;57.01;101913.29;1908022;75;20097;-62
2021/10/14 07:56:15;;;;;;;;;;;;;;;24.81;52.90;101920.45;1907936;75;20383;-64
2021/10/14 07:58:43;;;;;;;;;;;;;;;25.55;50.02;101910.35;1908121;74;20125;-63
2021/10/14 08:01:11;;;;;;;;;;;;;;;26.08;50.64;101915.73;1908015;75;20121;-63
2021/10/14 08:03:39;;;;;;;;;;;;;;;26.69;49.46;101911.33;1908035;75;20105;-63
2021/10/14 08:06:07;;;;;;;;;;;;;;;27.48;49.88;101916.78;1908037;75;20117;-63
2021/10/14 08:08:35;;;;;;;;;;;;;;;28.20;49.17;101901.52;1908046;75;20109;-63
2021/10/14 08:11:02;;;;;;;;;;;;;;;28.48;47.34;101902.42;1907978;75;20105;-63
2021/10/14 08:13:30;;;;;;;;;;;;;;;28.37;44.76;101905.30;1908033;75;20113;-63
2021/10/14 08:15:58;;;;;;;;;;;;;;;28.61;46.19;101915.15;1908223;75;20105;-63
2021/10/14 08:18:27;;;;;;;;;;;;;;;28.91;45.03;101913.12;1908071;75;20124;-63
2021/10/14 08:20:56;;;;;;;;;;;;;;;28.95;43.38;101909.61;1908038;75;20113;-63
2021/10/14 08:23:25;;;;;;;;;;;;;;;28.97;43.73;101911.67;1908063;75;20113;-63
2021/10/14 08:25:53;;;;;;;;;;;;;;;29.19;43.75;101912.61;1908064;75;20395;-63
2021/10/14 08:28:23;;;;;;;;;;;;;;;29.66;43.36;101910.17;1908030;75;20129;-63
2021/10/14 08:30:52;;;;;;;;;;;;;;;29.84;42.35;101910.15;1908009;75;20102;-63
2021/10/14 08:33:20;;;;;;;;;;;;;;;29.66;39.16;101911.53;1908087;75;20143;-63
2021/10/14 08:35:48;;;;;;;;;;;;;;;29.24;37.10;101904.02;1907995;75;20164;-64
2021/10/14 08:38:15;;;;;;;;;;;;;;;29.01;37.96;101911.22;1907976;75;20113;-63
2021/10/14 08:40:43;;;;;;;;;;;;;;;29.18;38.17;101904.14;1908023;75;20117;-64
2021/10/14 08:43:13;;;;;;;;;;;;;;;29.50;38.64;101910.88;1908042;75;20151;-63
2021/10/14 08:45:42;;;;;;;;;;;;;;;29.98;38.53;101910.94;1908051;75;20402;-63
2021/10/14 08:48:10;;;;;;;;;;;;;;;30.31;38.21;101908.42;1908006;75;20159;-63
2021/10/14 08:50:39;;;;;;;;;;;;;;;29.75;37.24;101905.67;1907878;75;20148;-63
2021/10/14 08:53:07;;;;;;;;;;;;;;;29.58;35.89;101908.22;1907945;75;20473;-63
2021/10/14 08:55:37;;;;;;;;;;;;;;;29.46;35.52;101906.77;1908092;75;20156;-63
2021/10/14 08:58:07;;;;;;;;;;;;;;;29.40;33.71;101906.02;1908009;75;20101;-63
2021/10/14 09:00:39;;;;;;;;;;;;;;;28.99;35.95;101911.00;1908023;75;20117;-63
2021/10/14 09:03:14;;;;;;;;;;;;;;;27.89;37.33;101906.66;1907985;75;20409;-63
2021/10/14 09:05:48;;;;;;;;;;;;;;;28.46;35.13;101906.63;1905353;74;20105;-63
2021/10/14 09:08:16;;;;;;;;;;;;;;;28.87;34.33;101899.02;1908020;75;20113;-63
2021/10/14 09:10:44;;;;;;;;;;;;;;;28.78;34.43;101901.80;1907981;74;20147;-63
2021/10/14 09:13:16;;;;;;;;;;;;;;;28.46;34.47;101906.63;1908018;75;20125;-63
2021/10/14 09:15:43;;;;;;;;;;;;;;;26.83;35.56;101909.59;1907946;75;20478;-63
2021/10/14 09:18:11;;;;;;;;;;;;;;;26.11;37.59;101899.25;1908015;75;20143;-63
2021/10/14 09:20:40;;;;;;;;;;;;;;;24.80;38.72;101902.06;1908003;75;20109;-64
2021/10/14 09:23:10;;;;;;;;;;;;;;;23.67;40.45;101902.39;1908030;75;20190;-63
2021/10/14 09:25:42;;;;;;;;;;;;;;;23.92;41.09;101903.22;1908122;75;20156;-64
2021/10/14 09:28:29;;;;;;;;;;;;;;;24.02;41.01;101900.20;1907934;75;20164;-63
2021/10/14 09:31:05;;;;;;;;;;;;;;;24.07;40.76;101897.52;1908510;74;20309;-63
2021/10/14 09:33:46;;;;;;;;;;;;;;;23.81;41.63;101902.23;1907999;75;20117;-63
2021/10/14 09:36:19;;;;;;;;;;;;;;;24.74;41.07;101897.69;1907991;75;20383;-63
2021/10/14 09:38:51;;;;;;;;;;;;;;;24.87;40.80;101901.08;1908093;75;20241;-63
2021/10/14 09:41:21;;;;;;;;;;;;;;;26.11;39.00;101901.10;1908004;75;20113;-63
2021/10/14 09:43:50;;;;;;;;;;;;;;;26.93;36.99;101894.28;1907972;75;20184;-63
2021/10/14 09:46:19;;;;;;;;;;;;;;;27.03;35.39;101900.20;1907983;75;20156;-63
2021/10/14 09:48:50;;;;;;;;;;;;;;;26.34;35.61;101889.66;1905969;74;20194;-64
2021/10/14 09:51:18;;;;;;;;;;;;;;;26.72;36.10;101907.02;1907958;75;20110;-63
2021/10/14 09:53:47;;;;;;;;;;;;;;;25.13;36.31;101896.74;1908024;75;20109;-63
2021/10/14 09:56:15;;;;;;;;;;;;;;;24.52;38.23;101909.30;1907991;75;20143;-63
2021/10/14 09:58:43;;;;;;;;;;;;;;;23.82;39.25;101899.89;1907996;75;20113;-63
2021/10/14 10:01:13;;;;;;;;;;;;;;;23.30;40.49;101917.27;1907989;75;20383;-63
2021/10/14 10:03:41;;;;;;;;;;;;;;;23.08;41.49;101926.05;1907890;75;20101;-64
2021/10/14 10:06:10;;;;;;;;;;;;;;;23.38;41.89;101918.88;1907984;75;20152;-63
2021/10/14 10:08:39;;;;;;;;;;;;;;;24.79;40.86;101919.72;1908003;75;20148;-63
2021/10/14 10:11:08;;;;;;;;;;;;;;;26.29;39.57;101916.20;1907971;75;20117;-63
2021/10/14 10:13:37;;;;;;;;;;;;;;;26.36;39.88;101916.87;1908004;75;20113;-63
2021/10/14 10:16:19;;;;;;;;;;;;;;;25.56;41.07;101921.02;1907873;75;20125;-63
2021/10/14 10:18:47;;;;;;;;;;;;;;;24.99;41.84;101918.95;1907964;75;20101;-63
2021/10/14 10:21:32;;;;;;;;;;;;;;;24.55;42.58;101916.67;1907995;75;20145;-63
2021/10/14 10:24:04;;;;;;;;;;;;;;;24.07;42.77;101912.81;1907994;75;20109;-63
2021/10/14 10:26:36;;;;;;;;;;;;;;;23.74;43.46;101918.43;1907723;74;20165;-63
2021/10/14 10:29:06;;;;;;;;;;;;;;;23.24;43.78;101929.79;1907968;75;20140;-63
2021/10/14 10:31:55;;;;;;;;;;;;;;;22.92;44.24;101931.64;1912142;74;20132;-63
2021/10/14 10:37:16;;;;;;;;;;;;;;;22.91;44.58;101946.05;1927341;74;20195;-63
2021/10/14 10:39:56;;;;;;;;;;;;;;;22.59;45.01;101940.30;1927398;74;20147;-63
2021/10/14 10:42:41;;;;;;;;;;;;;;;22.23;45.56;101937.88;1927396;74;20100;-63
2021/10/14 10:45:10;;;;;;;;;;;;;;;21.96;46.10;101945.00;1927163;74;20156;-63
2021/10/14 10:47:39;;;;;;;;;;;;;;;21.73;46.09;101939.88;1927349;74;20151;-63
2021/10/14 10:50:08;;;;;;;;;;;;;;;21.61;46.52;101949.22;1927392;74;20124;-63
2021/10/14 10:52:38;;;;;;;;;;;;;;;21.57;46.80;101947.22;1927347;74;20405;-63
2021/10/14 10:55:19;;;;;;;;;;;;;;;21.69;46.84;101945.53;1927304;74;20424;-63
2021/10/14 10:57:51;;;;;;;;;;;;;;;21.97;46.89;101945.89;1927230;74;20160;-64
2021/10/14 11:00:23;;;;;;;;;;;;;;;21.91;47.05;101952.98;1927319;74;20429;-63
2021/10/14 11:03:09;;;;;;;;;;;;;;;21.73;47.33;101951.09;1927428;74;20155;-63
2021/10/14 11:05:43;;;;;;;;;;;;;;;21.69;46.78;101957.59;1927367;74;20143;-63
2021/10/14 11:08:13;;;;;;;;;;;;;;;21.90;47.05;101953.48;1927260;74;20414;-63
2021/10/14 11:10:42;;;;;;;;;;;;;;;22.17;46.52;101960.62;1927306;74;20424;-63
2021/10/14 11:13:10;;;;;;;;;;;;;;;22.58;46.22;101958.23;1927354;74;20363;-63
2021/10/14 11:15:37;;;;;;;;;;;;;;;23.42;44.42;101953.10;1927344;74;20196;-63
2021/10/14 11:18:07;;;;;;;;;;;;;;;23.70;43.10;101954.60;1927469;74;20117;-62
2021/10/14 11:20:35;;;;;;;;;;;;;;;24.15;43.24;101953.41;1927567;74;20124;-64
2021/10/14 11:23:06;;;;;;;;;;;;;;;24.77;42.76;101952.16;1927412;74;20219;-63
2021/10/14 11:25:35;;;;;;;;;;;;;;;24.63;42.84;101953.25;1927738;74;20371;-62
2021/10/14 11:28:07;;;;;;;;;;;;;;;24.00;43.53;101951.42;1927459;74;20378;-63
2021/10/14 11:30:36;;;;;;;;;;;;;;;23.36;44.37;101957.11;1927502;74;20112;-63
2021/10/14 11:33:14;;;;;;;;;;;;;;;22.90;45.17;101960.44;1927451;74;20125;-64
2021/10/14 11:35:33;;;;;;;;;;;;;;;22.75;45.62;101953.00;1923109;74;20190;-63
2021/10/14 11:38:09;;;;;;;;;;;;;;;22.45;45.64;101956.05;1927582;74;20150;-63
2021/10/14 11:40:37;;;;;;;;;;;;;;;22.06;46.43;101957.33;1927494;74;20383;-63
2021/10/14 11:43:05;;;;;;;;;;;;;;;21.75;46.92;101955.86;1927685;74;20397;-63
2021/10/14 11:45:33;;;;;;;;;;;;;;;21.46;47.34;101958.64;1927458;74;20112;-63
2021/10/14 11:48:01;;;;;;;;;;;;;;;21.27;47.42;101959.45;1927539;74;20163;-63
2021/10/14 11:50:32;;;;;;;;;;;;;;;21.12;47.82;101954.61;1927566;74;20163;-64
2021/10/14 11:53:02;;;;;;;;;;;;;;;20.95;48.25;101961.91;1927513;74;20156;-63
2021/10/14 11:55:31;;;;;;;;;;;;;;;20.89;48.55;101965.44;1927429;74;20147;-63
2021/10/14 11:58:03;;;;;;;;;;;;;;;20.80;48.74;101968.20;1927450;74;20182;-63
2021/10/14 12:00:31;;;;;;;;;;;;;;;20.69;49.06;101964.02;1927409;74;20429;-63
2021/10/14 12:02:59;;;;;;;;;;;;;;;20.59;48.94;101970.39;1927452;74;20206;-63
2021/10/14 12:05:27;;;;;;;;;;;;;;;20.48;49.28;101968.86;1927487;74;20117;-63
2021/10/14 12:07:56;;;;;;;;;;;;;;;20.43;49.40;101965.95;1927438;74;20101;-63
2021/10/14 12:10:48;;;;;;;;;;;;;;;20.38;49.61;101965.41;1927470;74;20128;-63
2021/10/14 12:13:14;;;;;;;;;;;;;;;20.34;49.73;101968.34;1927034;74;20417;-63
2021/10/14 12:15:42;;;;;;;;;;;;;;;20.30;49.82;101973.50;1927464;74;20120;-63
2021/10/14 12:18:11;;;;;;;;;;;;;;;20.33;49.85;101980.02;1927480;74;20117;-63
2021/10/14 12:20:39;;;;;;;;;;;;;;;20.33;49.84;101978.20;1928189;74;20116;-62
2021/10/14 12:23:07;;;;;;;;;;;;;;;20.29;49.96;101979.34;1927419;74;20105;-63
2021/10/14 12:25:38;;;;;;;;;;;;;;;20.20;50.15;101975.88;1927408;74;20116;-63
2021/10/14 12:28:06;;;;;;;;;;;;;;;20.22;50.20;101974.83;1927566;74;20112;-63
2021/10/14 12:30:38;;;;;;;;;;;;;;;20.31;50.14;101980.11;1927705;74;20116;-63
2021/10/14 12:33:13;;;;;;;;;;;;;;;20.29;50.02;101983.35;1927317;74;20112;-63
2021/10/14 12:35:42;;;;;;;;;;;;;;;20.17;49.99;101986.75;1927332;74;20113;-63
2021/10/14 12:38:11;;;;;;;;;;;;;;;20.12;50.15;101990.17;1927419;74;20112;-63
2021/10/14 12:40:44;;;;;;;;;;;;;;;19.99;50.33;101993.59;1927421;74;20159;-63
2021/10/14 12:43:16;;;;;;;;;;;;;;;19.84;50.32;101995.81;1927436;74;20116;-63
2021/10/14 12:48:34;;;;;;;;;;;;;;;19.44;50.82;102002.95;1927365;74;20113;-63
2021/10/14 12:53:48;;;;;;;;;;;;;;;19.03;51.64;102015.45;1927404;74;20104;-63
2021/10/14 12:56:17;;;;;;;;;;;;;;;18.73;52.17;102016.58;1927443;74;20116;-63